sensor_id;sensor_type;location;lat;lon;timestamp;pressure;altitude;pressure_sealevel;temperature;humidity
49779;BME280;36217;60.232;24.776;2023-02-11T00:00:55;100191.00;;;-0.60;97.74
49779;BME280;36217;60.232;24.776;2023-02-11T00:03:23;100182.85;;;-0.46;97.61
49779;BME280;36217;60.232;24.776;2023-02-11T00:05:58;100180.49;;;-0.39;97.25
49779;BME280;36217;60.232;24.776;2023-02-11T00:08:25;100182.82;;;-0.71;97.32
49779;BME280;36217;60.232;24.776;2023-02-11T00:10:53;100178.75;;;-0.42;97.85
49779;BME280;36217;60.232;24.776;2023-02-11T00:13:20;100174.84;;;-0.47;97.89
49779;BME280;36217;60.232;24.776;2023-02-11T00:15:48;100176.34;;;-0.92;98.01
49779;BME280;36217;60.232;24.776;2023-02-11T00:18:16;100174.39;;;-0.34;97.70
49779;BME280;36217;60.232;24.776;2023-02-11T00:20:44;100172.60;;;-0.55;97.75
49779;BME280;36217;60.232;24.776;2023-02-11T00:23:11;100163.44;;;-0.62;98.39
49779;BME280;36217;60.232;24.776;2023-02-11T00:25:39;100160.86;;;-0.53;96.72
49779;BME280;36217;60.232;24.776;2023-02-11T00:28:07;100156.49;;;-0.37;97.02
49779;BME280;36217;60.232;24.776;2023-02-11T00:30:34;100146.67;;;-0.35;97.25
49779;BME280;36217;60.232;24.776;2023-02-11T00:33:02;100146.80;;;-0.37;97.56
49779;BME280;36217;60.232;24.776;2023-02-11T00:35:29;100136.38;;;-0.62;98.11
49779;BME280;36217;60.232;24.776;2023-02-11T00:37:57;100133.32;;;-0.63;98.59
49779;BME280;36217;60.232;24.776;2023-02-11T00:40:24;100131.99;;;-0.22;99.17
49779;BME280;36217;60.232;24.776;2023-02-11T00:42:51;100127.31;;;-0.55;99.46
49779;BME280;36217;60.232;24.776;2023-02-11T00:45:18;100124.62;;;-0.30;100.00
49779;BME280;36217;60.232;24.776;2023-02-11T00:47:46;100121.33;;;-0.29;100.00
49779;BME280;36217;60.232;24.776;2023-02-11T00:50:13;100117.65;;;-0.22;100.00
49779;BME280;36217;60.232;24.776;2023-02-11T00:52:40;100113.46;;;-0.36;100.00
49779;BME280;36217;60.232;24.776;2023-02-11T00:55:08;100109.46;;;-0.32;100.00
49779;BME280;36217;60.232;24.776;2023-02-11T00:57:35;100104.84;;;-0.30;100.00
49779;BME280;36217;60.232;24.776;2023-02-11T01:00:03;100103.52;;;-0.26;100.00
49779;BME280;36217;60.232;24.776;2023-02-11T01:02:31;100100.73;;;-0.50;100.00
49779;BME280;36217;60.232;24.776;2023-02-11T01:04:58;100089.92;;;-0.27;100.00
49779;BME280;36217;60.232;24.776;2023-02-11T01:07:25;100081.12;;;-0.27;100.00
49779;BME280;36217;60.232;24.776;2023-02-11T01:09:53;100074.79;;;-0.35;100.00
49779;BME280;36217;60.232;24.776;2023-02-11T01:12:20;100063.27;;;-0.80;100.00
49779;BME280;36217;60.232;24.776;2023-02-11T01:14:48;100058.40;;;-0.43;100.00
49779;BME280;36217;60.232;24.776;2023-02-11T01:17:15;100051.09;;;-0.47;100.00
49779;BME280;36217;60.232;24.776;2023-02-11T01:19:42;100046.62;;;-0.47;100.00
49779;BME280;36217;60.232;24.776;2023-02-11T01:22:09;100045.84;;;-0.27;100.00
49779;BME280;36217;60.232;24.776;2023-02-11T01:24:36;100040.78;;;-0.50;100.00
49779;BME280;36217;60.232;24.776;2023-02-11T01:27:04;100035.43;;;-0.59;100.00
49779;BME280;36217;60.232;24.776;2023-02-11T01:29:31;100032.14;;;-0.55;100.00
49779;BME280;36217;60.232;24.776;2023-02-11T01:31:59;100022.72;;;-0.62;100.00
49779;BME280;36217;60.232;24.776;2023-02-11T01:34:27;100015.59;;;-0.38;100.00
49779;BME280;36217;60.232;24.776;2023-02-11T01:36:56;100008.86;;;-0.58;100.00
49779;BME280;36217;60.232;24.776;2023-02-11T01:39:22;100003.22;;;-0.31;100.00
49779;BME280;36217;60.232;24.776;2023-02-11T01:41:50;99994.66;;;-0.29;100.00
49779;BME280;36217;60.232;24.776;2023-02-11T01:44:23;99986.09;;;-0.24;100.00
49779;BME280;36217;60.232;24.776;2023-02-11T01:46:51;99973.13;;;-0.51;100.00
49779;BME280;36217;60.232;24.776;2023-02-11T01:49:21;99965.85;;;-0.72;100.00
49779;BME280;36217;60.232;24.776;2023-02-11T01:51:51;99953.06;;;-0.72;100.00
49779;BME280;36217;60.232;24.776;2023-02-11T01:54:23;99944.24;;;-0.30;100.00
49779;BME280;36217;60.232;24.776;2023-02-11T01:56:54;99935.59;;;-0.45;100.00
49779;BME280;36217;60.232;24.776;2023-02-11T01:59:27;99931.13;;;-0.48;100.00
49779;BME280;36217;60.232;24.776;2023-02-11T02:01:59;99922.48;;;-0.40;100.00
49779;BME280;36217;60.232;24.776;2023-02-11T02:04:34;99915.43;;;-0.46;100.00
49779;BME280;36217;60.232;24.776;2023-02-11T02:07:07;99907.78;;;-0.49;100.00
49779;BME280;36217;60.232;24.776;2023-02-11T02:09:39;99902.90;;;-0.38;100.00
49779;BME280;36217;60.232;24.776;2023-02-11T02:12:07;99903.46;;;-0.62;100.00
49779;BME280;36217;60.232;24.776;2023-02-11T02:14:37;99898.01;;;-0.46;100.00
49779;BME280;36217;60.232;24.776;2023-02-11T02:17:05;99894.02;;;-0.41;100.00
49779;BME280;36217;60.232;24.776;2023-02-11T02:20:31;99888.03;;;-0.74;100.00
49779;BME280;36217;60.232;24.776;2023-02-11T02:23:23;99877.08;;;-0.72;100.00
49779;BME280;36217;60.232;24.776;2023-02-11T02:26:11;99870.54;;;-0.76;100.00
49779;BME280;36217;60.232;24.776;2023-02-11T02:29:19;99863.40;;;-0.76;100.00
49779;BME280;36217;60.232;24.776;2023-02-11T02:32:08;99862.24;;;-0.34;100.00
49779;BME280;36217;60.232;24.776;2023-02-11T02:34:42;99858.80;;;-0.51;100.00
49779;BME280;36217;60.232;24.776;2023-02-11T02:37:17;99850.63;;;-0.30;100.00
49779;BME280;36217;60.232;24.776;2023-02-11T02:39:47;99841.80;;;-0.51;100.00
49779;BME280;36217;60.232;24.776;2023-02-11T02:42:17;99830.09;;;-0.45;100.00
49779;BME280;36217;60.232;24.776;2023-02-11T02:44:47;99824.10;;;-0.58;100.00
49779;BME280;36217;60.232;24.776;2023-02-11T02:47:14;99816.95;;;-0.31;100.00
49779;BME280;36217;60.232;24.776;2023-02-11T02:49:42;99814.19;;;-0.89;100.00
49779;BME280;36217;60.232;24.776;2023-02-11T02:52:18;99809.08;;;-0.77;100.00
49779;BME280;36217;60.232;24.776;2023-02-11T02:55:11;99798.65;;;-0.76;100.00
49779;BME280;36217;60.232;24.776;2023-02-11T02:57:57;99801.22;;;-0.65;100.00
49779;BME280;36217;60.232;24.776;2023-02-11T03:00:34;99799.28;;;-0.72;100.00
49779;BME280;36217;60.232;24.776;2023-02-11T03:03:15;99794.02;;;-0.85;100.00
49779;BME280;36217;60.232;24.776;2023-02-11T03:05:49;99789.29;;;-0.63;100.00
49779;BME280;36217;60.232;24.776;2023-02-11T03:08:26;99783.99;;;-0.60;100.00
49779;BME280;36217;60.232;24.776;2023-02-11T03:10:57;99777.49;;;-0.60;100.00
49779;BME280;36217;60.232;24.776;2023-02-11T03:13:28;99769.01;;;-0.71;100.00
49779;BME280;36217;60.232;24.776;2023-02-11T03:15:58;99763.51;;;-0.90;100.00
49779;BME280;36217;60.232;24.776;2023-02-11T03:18:28;99757.20;;;-0.83;100.00
49779;BME280;36217;60.232;24.776;2023-02-11T03:20:57;99755.89;;;-0.63;100.00
49779;BME280;36217;60.232;24.776;2023-02-11T03:23:28;99757.30;;;-0.88;100.00
49779;BME280;36217;60.232;24.776;2023-02-11T03:26:02;99757.66;;;-0.72;100.00
49779;BME280;36217;60.232;24.776;2023-02-11T03:28:35;99755.70;;;-0.93;100.00
49779;BME280;36217;60.232;24.776;2023-02-11T03:31:10;99753.92;;;-0.80;100.00
49779;BME280;36217;60.232;24.776;2023-02-11T03:33:44;99749.88;;;-0.72;100.00
49779;BME280;36217;60.232;24.776;2023-02-11T03:36:15;99743.84;;;-0.87;100.00
49779;BME280;36217;60.232;24.776;2023-02-11T03:38:46;99739.26;;;-0.97;100.00
49779;BME280;36217;60.232;24.776;2023-02-11T03:41:16;99733.00;;;-0.88;100.00
49779;BME280;36217;60.232;24.776;2023-02-11T03:43:49;99726.30;;;-1.23;100.00
49779;BME280;36217;60.232;24.776;2023-02-11T03:46:20;99719.48;;;-0.88;100.00
49779;BME280;36217;60.232;24.776;2023-02-11T03:48:53;99713.24;;;-1.47;100.00
49779;BME280;36217;60.232;24.776;2023-02-11T03:51:22;99705.03;;;-0.89;100.00
49779;BME280;36217;60.232;24.776;2023-02-11T03:53:53;99703.64;;;-0.95;100.00
49779;BME280;36217;60.232;24.776;2023-02-11T03:56:25;99700.47;;;-1.25;100.00
49779;BME280;36217;60.232;24.776;2023-02-11T03:58:53;99699.48;;;-1.33;100.00
49779;BME280;36217;60.232;24.776;2023-02-11T04:01:21;99698.09;;;-1.06;100.00
49779;BME280;36217;60.232;24.776;2023-02-11T04:03:48;99689.96;;;-1.46;100.00
49779;BME280;36217;60.232;24.776;2023-02-11T04:06:15;99691.55;;;-1.00;100.00
49779;BME280;36217;60.232;24.776;2023-02-11T04:08:42;99690.69;;;-1.34;100.00
49779;BME280;36217;60.232;24.776;2023-02-11T04:11:09;99694.10;;;-1.01;100.00
49779;BME280;36217;60.232;24.776;2023-02-11T04:13:37;99691.24;;;-0.95;100.00
49779;BME280;36217;60.232;24.776;2023-02-11T04:16:04;99689.64;;;-1.00;100.00
49779;BME280;36217;60.232;24.776;2023-02-11T04:18:31;99690.74;;;-1.19;100.00
49779;BME280;36217;60.232;24.776;2023-02-11T04:20:58;99691.15;;;-1.03;100.00
49779;BME280;36217;60.232;24.776;2023-02-11T04:23:26;99691.28;;;-1.23;100.00
49779;BME280;36217;60.232;24.776;2023-02-11T04:25:53;99686.56;;;-1.11;100.00
49779;BME280;36217;60.232;24.776;2023-02-11T04:28:20;99687.61;;;-1.16;100.00
49779;BME280;36217;60.232;24.776;2023-02-11T04:30:48;99683.38;;;-1.40;100.00
49779;BME280;36217;60.232;24.776;2023-02-11T04:33:15;99684.57;;;-1.48;100.00
49779;BME280;36217;60.232;24.776;2023-02-11T04:35:42;99684.97;;;-1.08;100.00
49779;BME280;36217;60.232;24.776;2023-02-11T04:38:09;99681.47;;;-1.22;100.00
49779;BME280;36217;60.232;24.776;2023-02-11T04:40:36;99681.00;;;-1.11;100.00
49779;BME280;36217;60.232;24.776;2023-02-11T04:43:03;99680.92;;;-1.50;100.00
49779;BME280;36217;60.232;24.776;2023-02-11T04:45:31;99681.79;;;-1.44;100.00
49779;BME280;36217;60.232;24.776;2023-02-11T04:47:58;99681.71;;;-1.48;100.00
49779;BME280;36217;60.232;24.776;2023-02-11T04:50:27;99677.60;;;-1.72;100.00
49779;BME280;36217;60.232;24.776;2023-02-11T04:52:54;99673.34;;;-1.63;100.00
49779;BME280;36217;60.232;24.776;2023-02-11T04:55:21;99672.74;;;-1.55;100.00
49779;BME280;36217;60.232;24.776;2023-02-11T04:57:49;99675.19;;;-1.55;100.00
49779;BME280;36217;60.232;24.776;2023-02-11T05:00:16;99680.48;;;-1.49;100.00
49779;BME280;36217;60.232;24.776;2023-02-11T05:02:43;99680.34;;;-1.47;100.00
49779;BME280;36217;60.232;24.776;2023-02-11T05:05:10;99679.47;;;-1.58;100.00
49779;BME280;36217;60.232;24.776;2023-02-11T05:07:37;99683.64;;;-1.69;100.00
49779;BME280;36217;60.232;24.776;2023-02-11T05:10:05;99679.17;;;-1.78;100.00
49779;BME280;36217;60.232;24.776;2023-02-11T05:12:32;99685.24;;;-1.51;100.00
49779;BME280;36217;60.232;24.776;2023-02-11T05:14:59;99691.88;;;-1.38;100.00
49779;BME280;36217;60.232;24.776;2023-02-11T05:17:26;99691.70;;;-1.54;100.00
49779;BME280;36217;60.232;24.776;2023-02-11T05:19:54;99689.20;;;-2.02;100.00
49779;BME280;36217;60.232;24.776;2023-02-11T05:22:21;99696.83;;;-1.79;100.00
49779;BME280;36217;60.232;24.776;2023-02-11T05:24:48;99694.01;;;-2.05;100.00
49779;BME280;36217;60.232;24.776;2023-02-11T05:27:15;99699.24;;;-1.94;100.00
49779;BME280;36217;60.232;24.776;2023-02-11T05:29:43;99700.06;;;-1.89;100.00
49779;BME280;36217;60.232;24.776;2023-02-11T05:32:10;99708.56;;;-1.93;100.00
49779;BME280;36217;60.232;24.776;2023-02-11T05:34:37;99702.36;;;-2.25;100.00
49779;BME280;36217;60.232;24.776;2023-02-11T05:37:04;99701.62;;;-1.91;100.00
49779;BME280;36217;60.232;24.776;2023-02-11T05:39:31;99708.84;;;-1.88;100.00
49779;BME280;36217;60.232;24.776;2023-02-11T05:41:59;99706.91;;;-1.57;100.00
49779;BME280;36217;60.232;24.776;2023-02-11T05:44:26;99710.68;;;-2.02;100.00
49779;BME280;36217;60.232;24.776;2023-02-11T05:46:53;99709.04;;;-2.02;100.00
49779;BME280;36217;60.232;24.776;2023-02-11T05:49:21;99716.82;;;-1.92;100.00
49779;BME280;36217;60.232;24.776;2023-02-11T05:51:48;99712.42;;;-2.40;100.00
49779;BME280;36217;60.232;24.776;2023-02-11T05:54:15;99715.54;;;-1.88;100.00
49779;BME280;36217;60.232;24.776;2023-02-11T05:56:42;99714.31;;;-1.88;100.00
49779;BME280;36217;60.232;24.776;2023-02-11T05:59:12;99722.04;;;-1.70;100.00
49779;BME280;36217;60.232;24.776;2023-02-11T06:01:39;99716.26;;;-2.24;100.00
49779;BME280;36217;60.232;24.776;2023-02-11T06:04:07;99713.40;;;-1.81;100.00
49779;BME280;36217;60.232;24.776;2023-02-11T06:06:34;99720.61;;;-1.99;100.00
49779;BME280;36217;60.232;24.776;2023-02-11T06:09:02;99718.72;;;-1.97;100.00
49779;BME280;36217;60.232;24.776;2023-02-11T06:11:29;99723.55;;;-2.03;100.00
49779;BME280;36217;60.232;24.776;2023-02-11T06:14:43;99731.06;;;-1.76;100.00
49779;BME280;36217;60.232;24.776;2023-02-11T06:29:39;99760.71;;;-1.71;100.00
49779;BME280;36217;60.232;24.776;2023-02-11T06:32:06;99762.74;;;-2.01;100.00
49779;BME280;36217;60.232;24.776;2023-02-11T06:34:33;99774.70;;;-1.63;100.00
49779;BME280;36217;60.232;24.776;2023-02-11T06:37:00;99795.85;;;-1.83;100.00
49779;BME280;36217;60.232;24.776;2023-02-11T06:39:27;99787.30;;;-1.75;100.00
49779;BME280;36217;60.232;24.776;2023-02-11T06:41:55;99801.06;;;-1.51;100.00
49779;BME280;36217;60.232;24.776;2023-02-11T06:44:22;99788.01;;;-1.97;100.00
49779;BME280;36217;60.232;24.776;2023-02-11T06:46:49;99806.81;;;-1.71;100.00
49779;BME280;36217;60.232;24.776;2023-02-11T06:49:16;99811.12;;;-2.28;100.00
49779;BME280;36217;60.232;24.776;2023-02-11T06:51:44;99817.44;;;-2.32;100.00
49779;BME280;36217;60.232;24.776;2023-02-11T06:54:11;99819.31;;;-1.94;100.00
49779;BME280;36217;60.232;24.776;2023-02-11T06:56:39;99819.89;;;-1.95;100.00
49779;BME280;36217;60.232;24.776;2023-02-11T06:59:06;99828.91;;;-1.85;100.00
49779;BME280;36217;60.232;24.776;2023-02-11T07:01:34;99833.07;;;-1.52;100.00
49779;BME280;36217;60.232;24.776;2023-02-11T07:04:01;99830.76;;;-2.27;100.00
49779;BME280;36217;60.232;24.776;2023-02-11T07:06:28;99840.13;;;-2.28;100.00
49779;BME280;36217;60.232;24.776;2023-02-11T07:08:55;99847.38;;;-1.94;100.00
49779;BME280;36217;60.232;24.776;2023-02-11T07:11:24;99847.40;;;-2.82;100.00
49779;BME280;36217;60.232;24.776;2023-02-11T07:13:54;99861.56;;;-1.73;100.00
49779;BME280;36217;60.232;24.776;2023-02-11T07:16:21;99857.52;;;-2.21;100.00
49779;BME280;36217;60.232;24.776;2023-02-11T07:18:48;99856.66;;;-2.40;100.00
49779;BME280;36217;60.232;24.776;2023-02-11T07:21:17;99865.77;;;-2.13;100.00
49779;BME280;36217;60.232;24.776;2023-02-11T07:23:45;99864.79;;;-2.08;100.00
49779;BME280;36217;60.232;24.776;2023-02-11T07:26:15;99866.33;;;-1.48;100.00
49779;BME280;36217;60.232;24.776;2023-02-11T07:28:44;99875.70;;;-1.67;100.00
49779;BME280;36217;60.232;24.776;2023-02-11T07:31:13;99880.15;;;-1.75;100.00
49779;BME280;36217;60.232;24.776;2023-02-11T07:33:41;99886.36;;;-1.38;100.00
49779;BME280;36217;60.232;24.776;2023-02-11T07:36:09;99891.55;;;-1.63;100.00
49779;BME280;36217;60.232;24.776;2023-02-11T07:38:37;99892.44;;;-1.60;100.00
49779;BME280;36217;60.232;24.776;2023-02-11T07:41:06;99889.81;;;-1.54;100.00
49779;BME280;36217;60.232;24.776;2023-02-11T07:43:35;99897.24;;;-1.36;100.00
49779;BME280;36217;60.232;24.776;2023-02-11T07:46:02;99902.85;;;-1.26;100.00
49779;BME280;36217;60.232;24.776;2023-02-11T07:48:30;99912.92;;;-1.43;100.00
49779;BME280;36217;60.232;24.776;2023-02-11T07:51:04;99918.41;;;-0.85;100.00
49779;BME280;36217;60.232;24.776;2023-02-11T07:53:31;99924.63;;;-0.95;100.00
49779;BME280;36217;60.232;24.776;2023-02-11T07:55:59;99938.81;;;-0.89;100.00
49779;BME280;36217;60.232;24.776;2023-02-11T07:58:26;99942.61;;;-0.75;100.00
49779;BME280;36217;60.232;24.776;2023-02-11T08:00:53;99943.16;;;-0.62;100.00
49779;BME280;36217;60.232;24.776;2023-02-11T08:03:20;99945.24;;;-0.79;100.00
49779;BME280;36217;60.232;24.776;2023-02-11T08:05:47;99956.16;;;-0.74;100.00
49779;BME280;36217;60.232;24.776;2023-02-11T08:08:15;99965.29;;;-0.47;100.00
49779;BME280;36217;60.232;24.776;2023-02-11T08:10:42;99967.58;;;-0.60;100.00
49779;BME280;36217;60.232;24.776;2023-02-11T08:13:09;99966.37;;;-0.55;100.00
49779;BME280;36217;60.232;24.776;2023-02-11T08:15:36;99971.92;;;-0.63;100.00
49779;BME280;36217;60.232;24.776;2023-02-11T08:18:04;99968.81;;;-0.16;100.00
49779;BME280;36217;60.232;24.776;2023-02-11T08:20:31;99976.26;;;-0.12;100.00
49779;BME280;36217;60.232;24.776;2023-02-11T08:22:58;99979.35;;;-0.17;100.00
49779;BME280;36217;60.232;24.776;2023-02-11T08:25:25;99977.87;;;-0.05;100.00
49779;BME280;36217;60.232;24.776;2023-02-11T08:27:52;99985.45;;;0.08;100.00
49779;BME280;36217;60.232;24.776;2023-02-11T08:30:20;99995.19;;;0.23;100.00
49779;BME280;36217;60.232;24.776;2023-02-11T08:32:47;100003.00;;;0.56;100.00
49779;BME280;36217;60.232;24.776;2023-02-11T08:35:14;100003.52;;;-0.10;100.00
49779;BME280;36217;60.232;24.776;2023-02-11T08:37:41;100011.61;;;0.03;100.00
49779;BME280;36217;60.232;24.776;2023-02-11T08:40:09;100029.08;;;0.37;100.00
49779;BME280;36217;60.232;24.776;2023-02-11T08:42:36;100032.32;;;-0.44;100.00
49779;BME280;36217;60.232;24.776;2023-02-11T08:45:04;100033.22;;;0.18;100.00
49779;BME280;36217;60.232;24.776;2023-02-11T08:47:32;100042.67;;;0.01;100.00
49779;BME280;36217;60.232;24.776;2023-02-11T08:49:59;100048.21;;;-0.18;100.00
49779;BME280;36217;60.232;24.776;2023-02-11T08:52:26;100055.79;;;-0.07;100.00
49779;BME280;36217;60.232;24.776;2023-02-11T08:54:53;100076.75;;;-0.62;100.00
49779;BME280;36217;60.232;24.776;2023-02-11T08:57:20;100087.24;;;-0.51;100.00
49779;BME280;36217;60.232;24.776;2023-02-11T08:59:48;100097.44;;;0.01;100.00
49779;BME280;36217;60.232;24.776;2023-02-11T09:02:15;100106.37;;;-0.22;100.00
49779;BME280;36217;60.232;24.776;2023-02-11T09:04:42;100110.82;;;-0.22;100.00
49779;BME280;36217;60.232;24.776;2023-02-11T09:07:09;100111.60;;;0.35;100.00
49779;BME280;36217;60.232;24.776;2023-02-11T09:09:36;100121.05;;;0.27;100.00
49779;BME280;36217;60.232;24.776;2023-02-11T09:12:04;100138.07;;;0.26;100.00
49779;BME280;36217;60.232;24.776;2023-02-11T09:14:31;100146.53;;;0.47;100.00
49779;BME280;36217;60.232;24.776;2023-02-11T09:16:58;100143.99;;;0.26;100.00
49779;BME280;36217;60.232;24.776;2023-02-11T09:19:25;100155.45;;;0.34;100.00
49779;BME280;36217;60.232;24.776;2023-02-11T09:21:52;100161.09;;;0.73;100.00
49779;BME280;36217;60.232;24.776;2023-02-11T09:24:20;100162.65;;;0.43;100.00
49779;BME280;36217;60.232;24.776;2023-02-11T09:26:47;100170.94;;;0.49;100.00
49779;BME280;36217;60.232;24.776;2023-02-11T09:29:14;100179.03;;;0.38;100.00
49779;BME280;36217;60.232;24.776;2023-02-11T09:31:41;100182.69;;;0.67;100.00
49779;BME280;36217;60.232;24.776;2023-02-11T09:34:09;100184.78;;;0.59;100.00
49779;BME280;36217;60.232;24.776;2023-02-11T09:36:38;100181.79;;;0.77;100.00
49779;BME280;36217;60.232;24.776;2023-02-11T09:39:07;100182.75;;;0.50;100.00
49779;BME280;36217;60.232;24.776;2023-02-11T09:41:47;100183.31;;;0.39;100.00
49779;BME280;36217;60.232;24.776;2023-02-11T09:44:20;100183.61;;;0.55;100.00
49779;BME280;36217;60.232;24.776;2023-02-11T09:46:54;100201.71;;;0.29;100.00
49779;BME280;36217;60.232;24.776;2023-02-11T09:49:25;100208.23;;;1.20;99.94
49779;BME280;36217;60.232;24.776;2023-02-11T09:52:03;100209.10;;;1.02;100.00
49779;BME280;36217;60.232;24.776;2023-02-11T09:54:35;100216.31;;;0.49;100.00
49779;BME280;36217;60.232;24.776;2023-02-11T09:57:03;100224.58;;;0.40;100.00
49779;BME280;36217;60.232;24.776;2023-02-11T09:59:30;100229.71;;;0.49;100.00
49779;BME280;36217;60.232;24.776;2023-02-11T10:02:03;100237.32;;;0.70;100.00
49779;BME280;36217;60.232;24.776;2023-02-11T10:04:43;100254.00;;;0.80;99.68
49779;BME280;36217;60.232;24.776;2023-02-11T10:07:20;100253.60;;;0.74;98.94
49779;BME280;36217;60.232;24.776;2023-02-11T10:10:01;100257.09;;;0.72;99.77
49779;BME280;36217;60.232;24.776;2023-02-11T10:12:42;100262.02;;;0.64;99.69
49779;BME280;36217;60.232;24.776;2023-02-11T10:15:21;100271.39;;;1.10;99.18
49779;BME280;36217;60.232;24.776;2023-02-11T10:18:01;100278.25;;;0.81;99.06
49779;BME280;36217;60.232;24.776;2023-02-11T10:20:36;100295.60;;;0.25;99.44
49779;BME280;36217;60.232;24.776;2023-02-11T10:23:12;100311.05;;;0.71;98.27
49779;BME280;36217;60.232;24.776;2023-02-11T10:25:43;100305.45;;;0.32;98.76
49779;BME280;36217;60.232;24.776;2023-02-11T10:28:14;100316.32;;;0.38;98.41
49779;BME280;36217;60.232;24.776;2023-02-11T10:30:44;100321.00;;;0.53;98.30
49779;BME280;36217;60.232;24.776;2023-02-11T10:33:22;100331.96;;;0.59;98.00
49779;BME280;36217;60.232;24.776;2023-02-11T10:35:50;100337.19;;;0.46;97.33
49779;BME280;36217;60.232;24.776;2023-02-11T10:38:18;100337.13;;;0.83;96.82
49779;BME280;36217;60.232;24.776;2023-02-11T10:40:45;100348.19;;;0.59;97.73
49779;BME280;36217;60.232;24.776;2023-02-11T10:43:14;100351.89;;;1.00;98.44
49779;BME280;36217;60.232;24.776;2023-02-11T10:45:44;100354.81;;;0.67;98.18
49779;BME280;36217;60.232;24.776;2023-02-11T10:48:52;100355.65;;;0.57;97.76
49779;BME280;36217;60.232;24.776;2023-02-11T10:51:21;100362.05;;;0.56;96.89
49779;BME280;36217;60.232;24.776;2023-02-11T10:53:50;100364.23;;;0.85;96.42
49779;BME280;36217;60.232;24.776;2023-02-11T10:56:26;100373.29;;;1.09;95.32
49779;BME280;36217;60.232;24.776;2023-02-11T10:58:57;100385.20;;;0.63;96.91
49779;BME280;36217;60.232;24.776;2023-02-11T11:01:38;100392.91;;;0.89;96.71
49779;BME280;36217;60.232;24.776;2023-02-11T11:04:33;100406.84;;;0.78;95.92
49779;BME280;36217;60.232;24.776;2023-02-11T11:07:18;100408.20;;;0.82;96.40
49779;BME280;36217;60.232;24.776;2023-02-11T11:09:50;100413.94;;;0.78;95.90
49779;BME280;36217;60.232;24.776;2023-02-11T11:12:29;100420.57;;;0.96;96.42
49779;BME280;36217;60.232;24.776;2023-02-11T11:14:59;100425.19;;;1.23;94.86
49779;BME280;36217;60.232;24.776;2023-02-11T11:17:26;100433.28;;;0.39;96.59
49779;BME280;36217;60.232;24.776;2023-02-11T11:20:18;100443.40;;;0.86;95.71
49779;BME280;36217;60.232;24.776;2023-02-11T11:22:46;100448.60;;;0.72;96.29
49779;BME280;36217;60.232;24.776;2023-02-11T11:25:24;100450.24;;;0.71;96.42
49779;BME280;36217;60.232;24.776;2023-02-11T11:27:55;100460.62;;;0.81;95.47
49779;BME280;36217;60.232;24.776;2023-02-11T11:30:27;100466.32;;;0.76;95.27
49779;BME280;36217;60.232;24.776;2023-02-11T11:32:58;100476.46;;;1.10;94.73
49779;BME280;36217;60.232;24.776;2023-02-11T11:35:28;100486.72;;;1.02;95.26
49779;BME280;36217;60.232;24.776;2023-02-11T11:37:58;100486.87;;;0.86;95.44
49779;BME280;36217;60.232;24.776;2023-02-11T11:40:29;100498.61;;;0.78;95.76
49779;BME280;36217;60.232;24.776;2023-02-11T11:43:15;100504.65;;;0.59;95.44
49779;BME280;36217;60.232;24.776;2023-02-11T11:45:59;100517.12;;;1.10;95.26
49779;BME280;36217;60.232;24.776;2023-02-11T11:48:28;100527.22;;;0.84;95.15
49779;BME280;36217;60.232;24.776;2023-02-11T11:51:00;100533.75;;;0.85;95.81
49779;BME280;36217;60.232;24.776;2023-02-11T11:53:34;100536.07;;;0.68;96.85
49779;BME280;36217;60.232;24.776;2023-02-11T11:56:05;100545.99;;;0.46;98.02
49779;BME280;36217;60.232;24.776;2023-02-11T11:58:33;100553.44;;;0.73;96.82
49779;BME280;36217;60.232;24.776;2023-02-11T12:01:10;100568.70;;;0.31;97.51
49779;BME280;36217;60.232;24.776;2023-02-11T12:04:13;100564.51;;;0.74;98.36
49779;BME280;36217;60.232;24.776;2023-02-11T12:06:54;100576.95;;;0.47;97.54
49779;BME280;36217;60.232;24.776;2023-02-11T12:09:27;100576.87;;;0.62;97.57
49779;BME280;36217;60.232;24.776;2023-02-11T12:12:05;100590.47;;;0.18;97.89
49779;BME280;36217;60.232;24.776;2023-02-11T12:14:43;100593.70;;;0.63;96.45
49779;BME280;36217;60.232;24.776;2023-02-11T12:17:25;100601.13;;;0.80;100.00
49779;BME280;36217;60.232;24.776;2023-02-11T12:20:05;100601.76;;;0.73;100.00
49779;BME280;36217;60.232;24.776;2023-02-11T12:22:42;100614.45;;;0.71;100.00
49779;BME280;36217;60.232;24.776;2023-02-11T12:25:25;100616.82;;;0.63;100.00
49779;BME280;36217;60.232;24.776;2023-02-11T12:28:00;100622.19;;;0.88;99.00
49779;BME280;36217;60.232;24.776;2023-02-11T12:30:43;100621.91;;;0.47;98.96
49779;BME280;36217;60.232;24.776;2023-02-11T12:33:20;100628.12;;;0.54;97.48
49779;BME280;36217;60.232;24.776;2023-02-11T12:35:57;100632.12;;;0.52;98.77
49779;BME280;36217;60.232;24.776;2023-02-11T12:38:56;100628.17;;;0.38;97.71
49779;BME280;36217;60.232;24.776;2023-02-11T12:41:36;100634.62;;;0.54;97.57
49779;BME280;36217;60.232;24.776;2023-02-11T12:44:15;100638.64;;;0.91;98.25
49779;BME280;36217;60.232;24.776;2023-02-11T12:46:49;100638.96;;;0.42;97.83
49779;BME280;36217;60.232;24.776;2023-02-11T12:49:31;100648.58;;;0.55;97.37
49779;BME280;36217;60.232;24.776;2023-02-11T12:52:20;100651.68;;;0.39;97.53
49779;BME280;36217;60.232;24.776;2023-02-11T12:54:54;100660.44;;;0.73;96.38
49779;BME280;36217;60.232;24.776;2023-02-11T12:57:25;100669.63;;;0.19;96.94
49779;BME280;36217;60.232;24.776;2023-02-11T12:59:57;100673.79;;;0.34;96.48
49779;BME280;36217;60.232;24.776;2023-02-11T13:02:42;100684.75;;;0.14;96.71
49779;BME280;36217;60.232;24.776;2023-02-11T13:05:21;100694.24;;;0.19;96.79
49779;BME280;36217;60.232;24.776;2023-02-11T13:07:50;100701.26;;;0.38;96.16
49779;BME280;36217;60.232;24.776;2023-02-11T13:10:25;100712.85;;;0.24;96.83
49779;BME280;36217;60.232;24.776;2023-02-11T13:12:55;100715.89;;;-0.02;96.49